Aviation Digital Data Service (ADDS)

Output produced by METARs form (0500 UTC 03 May 2016)
found at http://www.aviationweather.gov/adds/metars/
 
KJST 030454Z AUTO 00000KT 10SM BKN027 OVC037 12/08 A2987 RMK AO2 SLP110 T01170078 402060117
KJST 030354Z AUTO 31004KT 10SM OVC026 12/08 A2990 RMK AO2 SLP121 T01220083
KJST 030254Z AUTO 00000KT 10SM BKN024 BKN030 BKN037 12/09 A2990 RMK AO2 RAE06 SLP120 P0000 60000 T01220089 55009
KJST 030238Z AUTO 29004KT 10SM BKN025 13/08 A2990 RMK AO2 RAE06 P0000 T01280083
KJST 030154Z AUTO 32004KT 10SM -RA OVC085 13/08 A2990 RMK AO2 SLP120 P0000 T01330083
KJST 030054Z AUTO 00000KT 10SM -RA OVC090 13/08 A2990 RMK AO2 RAB08 SLP122 P0000 T01330078
KJST 022354Z AUTO 28006KT 10SM SCT042 OVC085 15/07 A2993 RMK AO2 SLP129 T01500072 10206 20150 51012
KJST 022254Z AUTO 36007KT 10SM CLR 16/08 A2990 RMK AO2 SLP121 T01610083
KJST 022154Z AUTO 33010KT 10SM BKN030 BKN038 OVC046 17/09 A2992 RMK AO2 SLP128 T01720089
KJST 022054Z AUTO 33010KT 10SM SCT050 19/10 A2989 RMK AO2 SLP115 T01890100 58002
KJST 021954Z AUTO 29011KT 10SM BKN044 19/10 A2990 RMK AO2 SLP119 T01890100
KJST 021854Z AUTO 31014G18KT 10SM SCT038 BKN050 BKN060 20/10 A2990 RMK AO2 SLP118 T02000100
KJST 021754Z AUTO 26013G24KT 10SM BKN039 OVC048 19/08 A2990 RMK AO2 SLP118 T01890083 10200 20139 58006
KJST 021654Z AUTO 26014G20KT 10SM FEW034 BKN048 OVC060 18/09 A2991 RMK AO2 SLP122 T01830089
KJST 021554Z AUTO 26009KT 230V290 10SM SCT026 BKN032 OVC039 18/11 A2991 RMK AO2 PK WND 26026/1531 SLP123 T01830106
KJST 021539Z AUTO 24015G26KT 10SM FEW021 BKN033 OVC039 18/11 A2992 RMK AO2 PK WND 26026/1531 T01830106
KJST 021454Z AUTO 25009KT 10SM BKN020 OVC027 16/11 A2991 RMK AO2 SLP126 T01610106 50001
KJST 021354Z AUTO 24013G17KT 10SM SCT013 BKN022 OVC031 16/11 A2991 RMK AO2 SLP126 T01560111
KJST 021346Z AUTO 25009KT 10SM SCT009 BKN015 OVC023 15/11 A2992 RMK AO2 T01500111
KJST 021331Z AUTO 25008KT 10SM OVC009 14/11 A2992 RMK AO2 CIG 008V016 T01440111
KJST 021254Z AUTO 23011KT 10SM BKN010 OVC015 14/11 A2992 RMK AO2 CIG 008V012 SLP126 T01440111
KJST 021213Z AUTO 25011G18KT 10SM OVC012 14/11 A2991 RMK AO2 T01440106
KJST 021154Z AUTO 26010G17KT 10SM BKN015 14/11 A2991 RMK AO2 RAE14 SLP124 P0000 60002 70009 T01440111 10144 20122 53009
KJST 021054Z AUTO 20007KT 6SM -RA BR SCT018 BKN039 OVC095 13/11 A2989 RMK AO2 RAB22 SLP117 P0002 T01330111
KJST 021014Z AUTO 21008KT 10SM SCT003 OVC029 13/11 A2991 RMK AO2 T01280106
KJST 020954Z AUTO 21007KT 8SM OVC003 13/11 A2990 RMK AO2 LTG DSNT N AND NE CIG 002V006 SLP121 T01280106
KJST 020910Z AUTO 18007KT 9SM OVC003 13/11 A2988 RMK AO2 LTG DSNT W AND NW T01280106
KJST 020854Z AUTO 19007KT 7SM OVC002 13/11 A2988 RMK AO2 LTG DSNT NW SLP112 T01280106 58013
KJST 020842Z AUTO 18007KT 4SM BR OVC002 13/11 A2988 RMK AO2 LTG DSNT N AND NW T01280106
KJST 020835Z AUTO 17007KT 2 1/2SM BR OVC002 13/11 A2988 RMK AO2 LTG DSNT NW-NE T01280106
KJST 020819Z AUTO 18007KT 1 1/4SM BR OVC002 13/11 A2989 RMK AO2 LTG DSNT NW T01280106
KJST 020806Z AUTO 17007KT 1/2SM FG VV002 12/11 A2990 RMK AO2 LTG DSNT NW T01220106
KJST 020754Z AUTO 19007KT 1/4SM FG VV002 12/11 A2990 RMK AO2 LTG DSNT NW SLP121 T01220106
KJST 020732Z AUTO 19007KT 1/4SM FG VV002 12/11 A2990 RMK AO2 T01220106
KJST 020654Z AUTO 20007KT 1/2SM FG VV002 12/11 A2991 RMK AO2 SLP123 T01220106
KJST 020632Z AUTO 16007KT 1/2SM FG VV002 12/11 A2990 RMK AO2 T01220106
KJST 020618Z AUTO 18006KT 1 3/4SM BR OVC002 12/11 A2992 RMK AO2 T01220106
KJST 020554Z AUTO 16006KT 4SM BR OVC002 12/10 A2992 RMK AO2 SLP127 60001 T01220100 10144 20122 58015
KJST 020547Z AUTO 15005KT 5SM BR OVC002 12/10 A2992 RMK AO2 T01220100
KJST 020521Z AUTO 15007KT 10SM BKN004 12/10 A2994 RMK AO2 T01220100
KJST 020503Z AUTO 17004KT 10SM SCT004 12/10 A2994 RMK AO2 T01220100
KJST 020454Z AUTO 00000KT 10SM CLR 12/10 A2994 RMK AO2 SLP136 T01220100 402000083
KJST 020354Z AUTO 16007KT 10SM CLR 13/10 A2995 RMK AO2 SLP139 T01330100
KJST 020254Z AUTO 15003KT 10SM CLR 12/10 A2997 RMK AO2 SLP146 60001 T01220100 56003
KJST 020154Z AUTO 18004KT 6SM BR CLR 13/11 A2998 RMK AO2 SLP151 T01280106
KJST 020143Z AUTO 00000KT 5SM BR FEW095 12/10 A2998 RMK AO2 T01220100
KJST 020135Z AUTO 12004KT 2SM HZ FEW095 13/10 A2997 RMK AO2 T01280100
KJST 020054Z AUTO 34005KT 10SM BKN100 14/11 A2996 RMK AO2 RAE40 SLP144 P0001 T01440106
KJST 012354Z AUTO 20004KT 10SM -RA SCT075 BKN100 BKN120 14/11 A2998 RMK AO2 RAE07B50 SLP152 P0001 60006 T01390111 10200 20139 53010
KJST 012254Z AUTO 16013KT 4SM -RA FEW005 BKN038 OVC075 14/11 A2997 RMK AO2 RAB44 SLP149 P0004 T01390111
KJST 012245Z AUTO 16010KT 10SM -RA SCT005 BKN024 BKN037 14/11 A2997 RMK AO2 LTG DSNT SE RAB44 P0000 T01440111
KJST 012229Z AUTO 15014KT 10SM SCT005 BKN090 BKN110 14/11 A2996 RMK AO2 LTG DSNT SE T01440111
KJST 012154Z AUTO 10005KT 10SM SCT100 BKN120 17/12 A2996 RMK AO2 LTG DSNT S AND SW SLP142 T01670122
KJST 012054Z AUTO 26007KT 10SM FEW024 SCT030 BKN075 19/11 A2995 RMK AO2 LTG DSNT SW AND W SLP138 60001 T01890111 58004
KJST 011954Z AUTO 30006KT 10SM FEW015 SCT025 OVC075 18/13 A2996 RMK AO2 LTG DSNT NW RAB1859E46 SLP142 P0001 T01780133
KJST 011952Z AUTO 30008KT 10SM FEW015 SCT025 OVC070 17/13 A2996 RMK AO2 LTG DSNT NW RAB1859E46 P0001
KJST 011935Z AUTO 29009KT 9SM -RA BKN020 BKN050 OVC080 17/13 A2996 RMK AO2 RAB1859 CIG 015V029 P0001 T01720133
KJST 011854Z AUTO 26009KT 10SM FEW026 BKN055 OVC075 19/11 A2996 RMK AO2 SLP143 T01890111
KJST 011754Z AUTO 23010KT 10SM SCT027 BKN034 BKN045 19/12 A2996 RMK AO2 SLP143 60000 T01890117 10194 20117 58007
KJST 011744Z AUTO 26011KT 10SM SCT028 BKN035 19/12 A2996 RMK AO2 T01940122
KJST 011724Z AUTO 26008KT 10SM FEW022 BKN029 OVC060 18/12 A2997 RMK AO2 T01830122